sensor_id;sensor_type;location;lat;lon;timestamp;P1;durP1;ratioP1;P2;durP2;ratioP2
13432;SDS011;6789;47.678;9.158;2024-03-08T00:01:12;33.57;;;18.90;;
13432;SDS011;6789;47.678;9.158;2024-03-08T00:06:04;34.13;;;17.80;;
13432;SDS011;6789;47.678;9.158;2024-03-08T00:10:57;34.50;;;18.10;;
13432;SDS011;6789;47.678;9.158;2024-03-08T00:15:48;31.30;;;16.23;;
13432;SDS011;6789;47.678;9.158;2024-03-08T00:20:40;30.27;;;17.23;;
13432;SDS011;6789;47.678;9.158;2024-03-08T00:25:32;33.03;;;17.03;;
13432;SDS011;6789;47.678;9.158;2024-03-08T00:30:25;32.03;;;17.63;;
13432;SDS011;6789;47.678;9.158;2024-03-08T00:35:16;30.17;;;16.73;;
13432;SDS011;6789;47.678;9.158;2024-03-08T00:40:09;28.93;;;16.77;;
13432;SDS011;6789;47.678;9.158;2024-03-08T00:45:02;31.57;;;17.17;;
13432;SDS011;6789;47.678;9.158;2024-03-08T00:49:54;31.73;;;16.47;;
13432;SDS011;6789;47.678;9.158;2024-03-08T00:54:47;31.67;;;16.90;;
13432;SDS011;6789;47.678;9.158;2024-03-08T00:59:39;29.67;;;15.93;;
13432;SDS011;6789;47.678;9.158;2024-03-08T01:04:31;30.97;;;16.60;;
13432;SDS011;6789;47.678;9.158;2024-03-08T01:09:25;30.63;;;17.27;;
13432;SDS011;6789;47.678;9.158;2024-03-08T01:14:18;31.50;;;17.17;;
13432;SDS011;6789;47.678;9.158;2024-03-08T01:19:10;28.40;;;16.13;;
13432;SDS011;6789;47.678;9.158;2024-03-08T01:24:02;27.83;;;14.40;;
13432;SDS011;6789;47.678;9.158;2024-03-08T01:28:55;28.77;;;15.73;;
13432;SDS011;6789;47.678;9.158;2024-03-08T01:33:47;30.27;;;16.53;;
13432;SDS011;6789;47.678;9.158;2024-03-08T01:38:42;30.23;;;16.00;;
13432;SDS011;6789;47.678;9.158;2024-03-08T01:43:34;26.97;;;15.13;;
13432;SDS011;6789;47.678;9.158;2024-03-08T01:48:26;26.67;;;14.13;;
13432;SDS011;6789;47.678;9.158;2024-03-08T01:53:20;29.77;;;15.00;;
13432;SDS011;6789;47.678;9.158;2024-03-08T01:58:13;26.80;;;14.40;;
13432;SDS011;6789;47.678;9.158;2024-03-08T02:03:09;24.13;;;13.73;;
13432;SDS011;6789;47.678;9.158;2024-03-08T02:08:01;25.93;;;14.07;;
13432;SDS011;6789;47.678;9.158;2024-03-08T02:12:53;23.83;;;13.90;;
13432;SDS011;6789;47.678;9.158;2024-03-08T02:17:46;23.67;;;13.27;;
13432;SDS011;6789;47.678;9.158;2024-03-08T02:22:38;25.40;;;13.83;;
13432;SDS011;6789;47.678;9.158;2024-03-08T02:27:30;24.37;;;13.70;;
13432;SDS011;6789;47.678;9.158;2024-03-08T02:32:25;23.07;;;13.57;;
13432;SDS011;6789;47.678;9.158;2024-03-08T02:37:17;25.43;;;14.60;;
13432;SDS011;6789;47.678;9.158;2024-03-08T02:42:09;23.30;;;13.73;;
13432;SDS011;6789;47.678;9.158;2024-03-08T02:47:01;24.67;;;14.13;;
13432;SDS011;6789;47.678;9.158;2024-03-08T02:51:53;24.77;;;14.90;;
13432;SDS011;6789;47.678;9.158;2024-03-08T02:56:45;27.70;;;13.70;;
13432;SDS011;6789;47.678;9.158;2024-03-08T03:01:37;27.40;;;14.23;;
13432;SDS011;6789;47.678;9.158;2024-03-08T03:06:30;25.43;;;14.03;;
13432;SDS011;6789;47.678;9.158;2024-03-08T03:11:22;27.43;;;15.20;;
13432;SDS011;6789;47.678;9.158;2024-03-08T03:16:20;28.00;;;14.80;;
13432;SDS011;6789;47.678;9.158;2024-03-08T03:21:12;25.37;;;14.53;;
13432;SDS011;6789;47.678;9.158;2024-03-08T03:26:05;24.30;;;13.47;;
13432;SDS011;6789;47.678;9.158;2024-03-08T03:31:03;30.73;;;14.57;;
13432;SDS011;6789;47.678;9.158;2024-03-08T03:35:55;25.40;;;14.37;;
13432;SDS011;6789;47.678;9.158;2024-03-08T03:40:47;24.87;;;14.70;;
13432;SDS011;6789;47.678;9.158;2024-03-08T03:45:39;27.10;;;15.10;;
13432;SDS011;6789;47.678;9.158;2024-03-08T03:50:32;30.10;;;15.13;;
13432;SDS011;6789;47.678;9.158;2024-03-08T03:55:27;26.23;;;14.67;;
13432;SDS011;6789;47.678;9.158;2024-03-08T04:00:20;29.13;;;15.60;;
13432;SDS011;6789;47.678;9.158;2024-03-08T04:05:12;29.03;;;16.33;;
13432;SDS011;6789;47.678;9.158;2024-03-08T04:10:05;30.20;;;15.33;;
13432;SDS011;6789;47.678;9.158;2024-03-08T04:14:58;27.40;;;15.10;;
13432;SDS011;6789;47.678;9.158;2024-03-08T04:19:50;32.17;;;15.93;;
13432;SDS011;6789;47.678;9.158;2024-03-08T04:24:43;29.37;;;16.17;;
13432;SDS011;6789;47.678;9.158;2024-03-08T04:29:35;27.93;;;15.53;;
13432;SDS011;6789;47.678;9.158;2024-03-08T04:34:27;31.60;;;17.43;;
13432;SDS011;6789;47.678;9.158;2024-03-08T04:39:20;30.07;;;17.47;;
13432;SDS011;6789;47.678;9.158;2024-03-08T04:44:12;30.63;;;16.63;;
13432;SDS011;6789;47.678;9.158;2024-03-08T04:49:04;31.47;;;16.73;;
13432;SDS011;6789;47.678;9.158;2024-03-08T04:53:58;30.43;;;16.50;;
13432;SDS011;6789;47.678;9.158;2024-03-08T04:58:50;32.27;;;16.33;;
13432;SDS011;6789;47.678;9.158;2024-03-08T05:03:42;38.40;;;18.30;;
13432;SDS011;6789;47.678;9.158;2024-03-08T05:08:34;33.30;;;16.80;;
13432;SDS011;6789;47.678;9.158;2024-03-08T05:13:26;32.80;;;17.37;;
13432;SDS011;6789;47.678;9.158;2024-03-08T05:18:18;35.00;;;17.17;;
13432;SDS011;6789;47.678;9.158;2024-03-08T05:23:10;29.23;;;15.83;;
13432;SDS011;6789;47.678;9.158;2024-03-08T05:28:02;29.73;;;16.13;;
13432;SDS011;6789;47.678;9.158;2024-03-08T05:32:55;32.53;;;17.20;;
13432;SDS011;6789;47.678;9.158;2024-03-08T05:37:48;32.90;;;16.57;;
13432;SDS011;6789;47.678;9.158;2024-03-08T05:42:39;35.07;;;17.70;;
13432;SDS011;6789;47.678;9.158;2024-03-08T05:47:32;29.33;;;16.43;;
13432;SDS011;6789;47.678;9.158;2024-03-08T05:52:24;35.47;;;17.83;;
13432;SDS011;6789;47.678;9.158;2024-03-08T05:57:17;31.37;;;17.07;;
13432;SDS011;6789;47.678;9.158;2024-03-08T06:02:09;31.60;;;17.23;;
13432;SDS011;6789;47.678;9.158;2024-03-08T06:07:01;32.43;;;17.17;;
13432;SDS011;6789;47.678;9.158;2024-03-08T06:11:54;33.17;;;17.27;;
13432;SDS011;6789;47.678;9.158;2024-03-08T06:16:46;31.43;;;17.07;;
13432;SDS011;6789;47.678;9.158;2024-03-08T06:21:41;30.07;;;16.90;;
13432;SDS011;6789;47.678;9.158;2024-03-08T06:26:34;30.70;;;16.80;;
13432;SDS011;6789;47.678;9.158;2024-03-08T06:31:29;30.90;;;17.10;;
13432;SDS011;6789;47.678;9.158;2024-03-08T06:36:21;33.80;;;17.83;;
13432;SDS011;6789;47.678;9.158;2024-03-08T06:41:13;32.37;;;16.97;;
13432;SDS011;6789;47.678;9.158;2024-03-08T06:46:06;30.13;;;16.53;;
13432;SDS011;6789;47.678;9.158;2024-03-08T06:50:58;31.63;;;15.50;;
13432;SDS011;6789;47.678;9.158;2024-03-08T06:55:50;30.87;;;15.80;;
13432;SDS011;6789;47.678;9.158;2024-03-08T07:00:42;31.43;;;16.37;;
13432;SDS011;6789;47.678;9.158;2024-03-08T07:05:35;33.00;;;16.87;;
13432;SDS011;6789;47.678;9.158;2024-03-08T07:10:27;30.87;;;16.60;;
13432;SDS011;6789;47.678;9.158;2024-03-08T07:15:20;33.27;;;15.93;;
13432;SDS011;6789;47.678;9.158;2024-03-08T07:20:14;34.90;;;16.87;;
13432;SDS011;6789;47.678;9.158;2024-03-08T07:25:10;30.67;;;16.57;;
13432;SDS011;6789;47.678;9.158;2024-03-08T07:30:11;31.87;;;17.17;;
13432;SDS011;6789;47.678;9.158;2024-03-08T07:35:03;31.47;;;16.10;;
13432;SDS011;6789;47.678;9.158;2024-03-08T07:39:56;34.73;;;17.33;;
13432;SDS011;6789;47.678;9.158;2024-03-08T07:44:49;31.87;;;16.20;;
13432;SDS011;6789;47.678;9.158;2024-03-08T07:49:41;32.63;;;16.97;;
13432;SDS011;6789;47.678;9.158;2024-03-08T07:54:34;29.77;;;15.53;;
13432;SDS011;6789;47.678;9.158;2024-03-08T07:59:26;30.70;;;16.27;;
13432;SDS011;6789;47.678;9.158;2024-03-08T08:04:18;27.10;;;15.93;;
13432;SDS011;6789;47.678;9.158;2024-03-08T08:09:11;34.63;;;16.40;;
13432;SDS011;6789;47.678;9.158;2024-03-08T08:14:06;31.57;;;15.93;;
13432;SDS011;6789;47.678;9.158;2024-03-08T08:19:02;30.53;;;15.90;;
13432;SDS011;6789;47.678;9.158;2024-03-08T08:23:58;28.23;;;15.53;;
13432;SDS011;6789;47.678;9.158;2024-03-08T08:28:51;30.83;;;16.57;;
13432;SDS011;6789;47.678;9.158;2024-03-08T08:33:44;30.57;;;15.93;;
13432;SDS011;6789;47.678;9.158;2024-03-08T08:38:39;33.27;;;15.67;;
13432;SDS011;6789;47.678;9.158;2024-03-08T08:43:31;31.10;;;15.50;;
13432;SDS011;6789;47.678;9.158;2024-03-08T08:48:25;28.37;;;15.03;;
13432;SDS011;6789;47.678;9.158;2024-03-08T08:53:17;33.33;;;16.63;;
13432;SDS011;6789;47.678;9.158;2024-03-08T08:58:09;26.93;;;14.83;;
13432;SDS011;6789;47.678;9.158;2024-03-08T09:03:03;26.17;;;14.43;;
13432;SDS011;6789;47.678;9.158;2024-03-08T09:07:57;28.33;;;15.07;;
13432;SDS011;6789;47.678;9.158;2024-03-08T09:12:49;25.40;;;13.73;;
13432;SDS011;6789;47.678;9.158;2024-03-08T09:17:41;29.07;;;15.33;;
13432;SDS011;6789;47.678;9.158;2024-03-08T09:22:35;26.87;;;14.17;;
13432;SDS011;6789;47.678;9.158;2024-03-08T09:27:27;28.10;;;13.60;;
13432;SDS011;6789;47.678;9.158;2024-03-08T09:32:19;29.40;;;13.47;;
13432;SDS011;6789;47.678;9.158;2024-03-08T09:37:11;27.60;;;13.17;;
13432;SDS011;6789;47.678;9.158;2024-03-08T09:42:03;24.50;;;12.70;;
13432;SDS011;6789;47.678;9.158;2024-03-08T09:46:57;23.43;;;12.70;;
13432;SDS011;6789;47.678;9.158;2024-03-08T09:51:50;23.27;;;12.73;;
13432;SDS011;6789;47.678;9.158;2024-03-08T09:56:44;25.77;;;13.90;;
13432;SDS011;6789;47.678;9.158;2024-03-08T10:01:39;23.87;;;12.40;;
13432;SDS011;6789;47.678;9.158;2024-03-08T10:06:31;23.77;;;13.00;;
13432;SDS011;6789;47.678;9.158;2024-03-08T10:11:24;24.10;;;12.07;;
13432;SDS011;6789;47.678;9.158;2024-03-08T10:16:18;20.90;;;11.40;;
13432;SDS011;6789;47.678;9.158;2024-03-08T10:21:10;24.30;;;12.20;;
13432;SDS011;6789;47.678;9.158;2024-03-08T10:26:09;22.00;;;12.13;;
13432;SDS011;6789;47.678;9.158;2024-03-08T10:31:06;26.13;;;12.47;;
13432;SDS011;6789;47.678;9.158;2024-03-08T10:36:00;22.40;;;11.80;;
13432;SDS011;6789;47.678;9.158;2024-03-08T10:40:53;23.00;;;12.07;;
13432;SDS011;6789;47.678;9.158;2024-03-08T10:45:46;19.50;;;11.13;;
13432;SDS011;6789;47.678;9.158;2024-03-08T10:50:39;21.67;;;12.10;;
13432;SDS011;6789;47.678;9.158;2024-03-08T10:55:33;21.70;;;12.73;;
13432;SDS011;6789;47.678;9.158;2024-03-08T11:00:28;21.53;;;12.63;;
13432;SDS011;6789;47.678;9.158;2024-03-08T11:05:35;24.40;;;12.17;;
13432;SDS011;6789;47.678;9.158;2024-03-08T11:10:34;19.17;;;11.17;;
13432;SDS011;6789;47.678;9.158;2024-03-08T11:15:47;21.23;;;11.33;;
13432;SDS011;6789;47.678;9.158;2024-03-08T11:20:39;20.73;;;11.53;;
13432;SDS011;6789;47.678;9.158;2024-03-08T11:25:36;22.40;;;11.43;;
13432;SDS011;6789;47.678;9.158;2024-03-08T11:30:35;17.47;;;10.80;;
13432;SDS011;6789;47.678;9.158;2024-03-08T11:35:29;17.73;;;10.50;;
13432;SDS011;6789;47.678;9.158;2024-03-08T11:40:21;16.10;;;10.30;;
13432;SDS011;6789;47.678;9.158;2024-03-08T11:45:14;21.03;;;10.17;;
13432;SDS011;6789;47.678;9.158;2024-03-08T11:50:13;16.67;;;9.87;;
13432;SDS011;6789;47.678;9.158;2024-03-08T11:55:06;20.43;;;11.47;;
13432;SDS011;6789;47.678;9.158;2024-03-08T12:16:45;18.70;;;11.60;;
13432;SDS011;6789;47.678;9.158;2024-03-08T12:21:41;17.60;;;11.50;;
13432;SDS011;6789;47.678;9.158;2024-03-08T12:26:39;18.63;;;11.27;;
13432;SDS011;6789;47.678;9.158;2024-03-08T12:31:33;19.97;;;11.20;;
13432;SDS011;6789;47.678;9.158;2024-03-08T12:36:27;23.67;;;12.83;;
13432;SDS011;6789;47.678;9.158;2024-03-08T12:41:19;18.20;;;10.97;;
13432;SDS011;6789;47.678;9.158;2024-03-08T12:46:12;17.87;;;11.23;;
13432;SDS011;6789;47.678;9.158;2024-03-08T12:51:07;18.23;;;11.90;;
13432;SDS011;6789;47.678;9.158;2024-03-08T12:56:00;23.53;;;12.33;;
13432;SDS011;6789;47.678;9.158;2024-03-08T13:00:53;16.17;;;10.30;;
13432;SDS011;6789;47.678;9.158;2024-03-08T13:05:45;15.93;;;10.37;;
13432;SDS011;6789;47.678;9.158;2024-03-08T13:10:37;15.43;;;10.20;;
13432;SDS011;6789;47.678;9.158;2024-03-08T13:15:30;15.93;;;10.10;;
13432;SDS011;6789;47.678;9.158;2024-03-08T13:20:22;17.07;;;10.50;;
13432;SDS011;6789;47.678;9.158;2024-03-08T13:25:23;17.40;;;10.57;;
13432;SDS011;6789;47.678;9.158;2024-03-08T13:30:17;19.77;;;10.63;;
13432;SDS011;6789;47.678;9.158;2024-03-08T13:35:11;18.43;;;10.57;;
13432;SDS011;6789;47.678;9.158;2024-03-08T13:40:06;19.07;;;11.40;;
13432;SDS011;6789;47.678;9.158;2024-03-08T13:45:13;18.30;;;11.03;;
13432;SDS011;6789;47.678;9.158;2024-03-08T13:50:08;18.57;;;11.33;;
13432;SDS011;6789;47.678;9.158;2024-03-08T13:55:12;17.70;;;10.43;;
13432;SDS011;6789;47.678;9.158;2024-03-08T14:00:04;17.67;;;10.93;;
13432;SDS011;6789;47.678;9.158;2024-03-08T14:04:58;18.73;;;11.70;;
13432;SDS011;6789;47.678;9.158;2024-03-08T14:09:52;18.97;;;10.80;;
13432;SDS011;6789;47.678;9.158;2024-03-08T14:14:44;19.47;;;12.70;;
13432;SDS011;6789;47.678;9.158;2024-03-08T14:19:36;25.50;;;12.83;;
13432;SDS011;6789;47.678;9.158;2024-03-08T14:24:31;21.23;;;12.83;;
13432;SDS011;6789;47.678;9.158;2024-03-08T14:29:26;21.10;;;12.20;;
13432;SDS011;6789;47.678;9.158;2024-03-08T14:34:21;18.73;;;11.37;;
13432;SDS011;6789;47.678;9.158;2024-03-08T14:39:17;19.27;;;11.33;;
13432;SDS011;6789;47.678;9.158;2024-03-08T14:44:12;20.83;;;12.00;;
13432;SDS011;6789;47.678;9.158;2024-03-08T14:49:07;17.93;;;11.23;;
13432;SDS011;6789;47.678;9.158;2024-03-08T14:53:59;18.37;;;10.77;;
13432;SDS011;6789;47.678;9.158;2024-03-08T14:58:50;21.23;;;11.70;;
13432;SDS011;6789;47.678;9.158;2024-03-08T15:03:42;20.13;;;10.97;;
13432;SDS011;6789;47.678;9.158;2024-03-08T15:08:39;21.27;;;11.57;;
13432;SDS011;6789;47.678;9.158;2024-03-08T15:13:34;19.20;;;11.67;;
13432;SDS011;6789;47.678;9.158;2024-03-08T15:18:32;19.10;;;11.37;;
13432;SDS011;6789;47.678;9.158;2024-03-08T15:23:27;18.60;;;10.83;;
13432;SDS011;6789;47.678;9.158;2024-03-08T15:28:18;20.53;;;11.43;;
13432;SDS011;6789;47.678;9.158;2024-03-08T15:33:13;20.30;;;11.87;;
13432;SDS011;6789;47.678;9.158;2024-03-08T15:38:06;18.53;;;10.93;;
13432;SDS011;6789;47.678;9.158;2024-03-08T15:43:01;18.00;;;11.37;;
13432;SDS011;6789;47.678;9.158;2024-03-08T15:47:54;19.53;;;12.00;;
13432;SDS011;6789;47.678;9.158;2024-03-08T15:52:46;22.30;;;12.03;;
13432;SDS011;6789;47.678;9.158;2024-03-08T15:57:38;20.30;;;11.60;;
13432;SDS011;6789;47.678;9.158;2024-03-08T16:02:30;18.37;;;11.40;;
13432;SDS011;6789;47.678;9.158;2024-03-08T16:12:23;20.83;;;12.17;;
13432;SDS011;6789;47.678;9.158;2024-03-08T16:17:15;20.07;;;11.00;;
13432;SDS011;6789;47.678;9.158;2024-03-08T16:22:07;17.87;;;11.20;;
13432;SDS011;6789;47.678;9.158;2024-03-08T16:26:58;19.37;;;11.83;;
13432;SDS011;6789;47.678;9.158;2024-03-08T16:31:51;17.00;;;10.63;;
13432;SDS011;6789;47.678;9.158;2024-03-08T16:36:43;16.77;;;10.60;;
13432;SDS011;6789;47.678;9.158;2024-03-08T16:41:35;15.83;;;9.67;;
13432;SDS011;6789;47.678;9.158;2024-03-08T16:46:27;15.67;;;9.57;;
13432;SDS011;6789;47.678;9.158;2024-03-08T16:51:24;16.73;;;10.47;;
13432;SDS011;6789;47.678;9.158;2024-03-08T16:56:16;15.17;;;9.67;;
13432;SDS011;6789;47.678;9.158;2024-03-08T17:01:09;17.27;;;9.57;;
13432;SDS011;6789;47.678;9.158;2024-03-08T17:06:01;15.40;;;9.70;;
13432;SDS011;6789;47.678;9.158;2024-03-08T17:10:59;15.70;;;10.00;;
13432;SDS011;6789;47.678;9.158;2024-03-08T17:15:51;15.93;;;8.97;;
13432;SDS011;6789;47.678;9.158;2024-03-08T17:20:44;17.37;;;10.50;;
13432;SDS011;6789;47.678;9.158;2024-03-08T17:25:36;15.53;;;10.37;;
13432;SDS011;6789;47.678;9.158;2024-03-08T17:30:29;17.87;;;10.03;;
13432;SDS011;6789;47.678;9.158;2024-03-08T17:35:24;18.10;;;11.37;;
13432;SDS011;6789;47.678;9.158;2024-03-08T17:40:27;20.03;;;11.33;;
13432;SDS011;6789;47.678;9.158;2024-03-08T17:45:22;18.90;;;11.43;;
13432;SDS011;6789;47.678;9.158;2024-03-08T17:50:16;20.37;;;12.03;;
13432;SDS011;6789;47.678;9.158;2024-03-08T17:55:12;22.67;;;13.17;;
13432;SDS011;6789;47.678;9.158;2024-03-08T18:00:08;24.43;;;12.40;;
13432;SDS011;6789;47.678;9.158;2024-03-08T18:05:08;23.20;;;11.87;;
13432;SDS011;6789;47.678;9.158;2024-03-08T18:10:04;22.00;;;11.70;;
13432;SDS011;6789;47.678;9.158;2024-03-08T18:14:56;20.70;;;12.00;;
13432;SDS011;6789;47.678;9.158;2024-03-08T18:19:49;18.93;;;11.03;;
13432;SDS011;6789;47.678;9.158;2024-03-08T18:24:42;18.77;;;10.77;;
13432;SDS011;6789;47.678;9.158;2024-03-08T18:29:37;20.90;;;11.23;;
13432;SDS011;6789;47.678;9.158;2024-03-08T18:34:31;18.07;;;10.63;;
13432;SDS011;6789;47.678;9.158;2024-03-08T18:39:22;18.73;;;10.83;;
13432;SDS011;6789;47.678;9.158;2024-03-08T18:44:18;20.43;;;10.30;;
13432;SDS011;6789;47.678;9.158;2024-03-08T18:49:09;21.30;;;11.70;;
13432;SDS011;6789;47.678;9.158;2024-03-08T18:54:01;22.30;;;12.00;;
13432;SDS011;6789;47.678;9.158;2024-03-08T18:58:54;16.70;;;10.40;;
13432;SDS011;6789;47.678;9.158;2024-03-08T19:03:46;21.63;;;12.03;;
13432;SDS011;6789;47.678;9.158;2024-03-08T19:08:39;20.57;;;11.53;;
13432;SDS011;6789;47.678;9.158;2024-03-08T19:13:33;20.23;;;12.37;;
13432;SDS011;6789;47.678;9.158;2024-03-08T19:18:25;22.97;;;12.50;;
13432;SDS011;6789;47.678;9.158;2024-03-08T19:23:18;22.87;;;11.97;;
13432;SDS011;6789;47.678;9.158;2024-03-08T19:28:11;24.87;;;12.87;;
13432;SDS011;6789;47.678;9.158;2024-03-08T19:33:06;22.40;;;13.03;;
13432;SDS011;6789;47.678;9.158;2024-03-08T19:37:59;25.40;;;13.40;;
13432;SDS011;6789;47.678;9.158;2024-03-08T19:42:51;20.93;;;13.57;;
13432;SDS011;6789;47.678;9.158;2024-03-08T19:47:47;24.97;;;13.87;;
13432;SDS011;6789;47.678;9.158;2024-03-08T19:52:40;25.07;;;13.47;;
13432;SDS011;6789;47.678;9.158;2024-03-08T19:57:36;21.77;;;12.73;;
13432;SDS011;6789;47.678;9.158;2024-03-08T20:02:28;20.53;;;12.40;;
13432;SDS011;6789;47.678;9.158;2024-03-08T20:07:21;25.37;;;13.33;;
13432;SDS011;6789;47.678;9.158;2024-03-08T20:12:14;25.07;;;13.37;;
13432;SDS011;6789;47.678;9.158;2024-03-08T20:17:07;23.07;;;13.47;;
13432;SDS011;6789;47.678;9.158;2024-03-08T20:22:00;22.07;;;12.40;;
13432;SDS011;6789;47.678;9.158;2024-03-08T20:26:53;22.57;;;12.87;;
13432;SDS011;6789;47.678;9.158;2024-03-08T20:31:45;24.13;;;13.00;;
13432;SDS011;6789;47.678;9.158;2024-03-08T20:36:37;23.63;;;13.67;;
13432;SDS011;6789;47.678;9.158;2024-03-08T20:41:29;25.97;;;14.07;;
13432;SDS011;6789;47.678;9.158;2024-03-08T20:46:23;24.00;;;13.77;;
13432;SDS011;6789;47.678;9.158;2024-03-08T20:51:17;28.97;;;15.77;;
13432;SDS011;6789;47.678;9.158;2024-03-08T20:56:10;36.03;;;16.73;;
13432;SDS011;6789;47.678;9.158;2024-03-08T21:01:02;33.77;;;17.37;;
13432;SDS011;6789;47.678;9.158;2024-03-08T21:05:55;29.70;;;14.63;;
13432;SDS011;6789;47.678;9.158;2024-03-08T21:10:49;23.47;;;13.93;;
13432;SDS011;6789;47.678;9.158;2024-03-08T21:15:45;26.37;;;13.43;;
13432;SDS011;6789;47.678;9.158;2024-03-08T21:20:37;25.67;;;14.70;;
13432;SDS011;6789;47.678;9.158;2024-03-08T21:25:29;27.07;;;13.57;;
13432;SDS011;6789;47.678;9.158;2024-03-08T21:30:22;28.73;;;14.43;;
13432;SDS011;6789;47.678;9.158;2024-03-08T21:35:15;24.43;;;13.43;;
13432;SDS011;6789;47.678;9.158;2024-03-08T21:40:10;27.67;;;15.27;;
13432;SDS011;6789;47.678;9.158;2024-03-08T21:45:03;31.97;;;15.43;;
13432;SDS011;6789;47.678;9.158;2024-03-08T21:49:56;27.63;;;14.83;;
13432;SDS011;6789;47.678;9.158;2024-03-08T21:54:51;25.03;;;14.87;;
13432;SDS011;6789;47.678;9.158;2024-03-08T21:59:44;25.23;;;14.00;;
13432;SDS011;6789;47.678;9.158;2024-03-08T22:04:36;25.73;;;14.73;;
13432;SDS011;6789;47.678;9.158;2024-03-08T22:09:33;23.30;;;13.53;;
13432;SDS011;6789;47.678;9.158;2024-03-08T22:14:25;24.73;;;14.90;;
13432;SDS011;6789;47.678;9.158;2024-03-08T22:19:19;27.47;;;14.57;;
13432;SDS011;6789;47.678;9.158;2024-03-08T22:24:31;25.20;;;14.00;;
13432;SDS011;6789;47.678;9.158;2024-03-08T22:29:23;28.63;;;15.13;;
13432;SDS011;6789;47.678;9.158;2024-03-08T22:34:16;23.83;;;13.80;;
13432;SDS011;6789;47.678;9.158;2024-03-08T22:39:08;22.53;;;13.93;;
13432;SDS011;6789;47.678;9.158;2024-03-08T22:44:01;25.27;;;14.63;;
13432;SDS011;6789;47.678;9.158;2024-03-08T22:48:54;24.20;;;14.17;;
13432;SDS011;6789;47.678;9.158;2024-03-08T22:53:47;22.57;;;13.70;;
13432;SDS011;6789;47.678;9.158;2024-03-08T22:58:39;27.57;;;14.40;;
13432;SDS011;6789;47.678;9.158;2024-03-08T23:03:35;24.20;;;14.33;;
13432;SDS011;6789;47.678;9.158;2024-03-08T23:08:59;24.50;;;14.07;;
13432;SDS011;6789;47.678;9.158;2024-03-08T23:13:52;25.17;;;14.33;;
13432;SDS011;6789;47.678;9.158;2024-03-08T23:18:43;28.77;;;14.73;;
13432;SDS011;6789;47.678;9.158;2024-03-08T23:23:36;24.00;;;14.03;;
13432;SDS011;6789;47.678;9.158;2024-03-08T23:28:30;25.50;;;14.50;;
13432;SDS011;6789;47.678;9.158;2024-03-08T23:33:23;24.33;;;14.10;;
13432;SDS011;6789;47.678;9.158;2024-03-08T23:38:14;23.40;;;14.20;;
13432;SDS011;6789;47.678;9.158;2024-03-08T23:43:06;26.53;;;14.77;;
13432;SDS011;6789;47.678;9.158;2024-03-08T23:48:01;23.97;;;14.17;;
13432;SDS011;6789;47.678;9.158;2024-03-08T23:52:54;24.83;;;13.90;;
13432;SDS011;6789;47.678;9.158;2024-03-08T23:57:48;28.37;;;14.27;;
